sensor_id;sensor_type;location;lat;lon;timestamp;temperature;humidity
27747;DHT22;15138;51.012;4.692;2023-04-03T00:01:15;2.60;38.60
27747;DHT22;15138;51.012;4.692;2023-04-03T00:03:43;2.60;48.50
27747;DHT22;15138;51.012;4.692;2023-04-03T00:06:13;2.60;53.60
27747;DHT22;15138;51.012;4.692;2023-04-03T00:08:42;2.60;66.30
27747;DHT22;15138;51.012;4.692;2023-04-03T00:11:11;2.50;59.40
27747;DHT22;15138;51.012;4.692;2023-04-03T00:13:39;2.50;62.70
27747;DHT22;15138;51.012;4.692;2023-04-03T00:16:08;2.50;75.40
27747;DHT22;15138;51.012;4.692;2023-04-03T00:18:38;2.50;80.60
27747;DHT22;15138;51.012;4.692;2023-04-03T00:21:08;2.50;91.90
27747;DHT22;15138;51.012;4.692;2023-04-03T00:23:36;2.40;92.00
27747;DHT22;15138;51.012;4.692;2023-04-03T00:26:05;2.40;98.00
27747;DHT22;15138;51.012;4.692;2023-04-03T00:28:34;2.40;99.90
27747;DHT22;15138;51.012;4.692;2023-04-03T00:31:02;2.30;99.90
27747;DHT22;15138;51.012;4.692;2023-04-03T00:33:30;2.30;99.90
27747;DHT22;15138;51.012;4.692;2023-04-03T00:35:58;2.30;99.90
27747;DHT22;15138;51.012;4.692;2023-04-03T00:38:27;2.30;99.90
27747;DHT22;15138;51.012;4.692;2023-04-03T00:40:55;2.20;99.90
27747;DHT22;15138;51.012;4.692;2023-04-03T00:43:25;2.20;99.90
27747;DHT22;15138;51.012;4.692;2023-04-03T00:45:55;2.20;99.90
27747;DHT22;15138;51.012;4.692;2023-04-03T00:48:28;2.20;99.90
27747;DHT22;15138;51.012;4.692;2023-04-03T00:50:57;2.20;99.90
27747;DHT22;15138;51.012;4.692;2023-04-03T00:53:28;2.20;99.90
27747;DHT22;15138;51.012;4.692;2023-04-03T00:55:58;2.20;99.90
27747;DHT22;15138;51.012;4.692;2023-04-03T00:58:34;2.20;99.90
27747;DHT22;15138;51.012;4.692;2023-04-03T01:01:06;2.10;99.90
27747;DHT22;15138;51.012;4.692;2023-04-03T01:03:36;2.10;99.90
27747;DHT22;15138;51.012;4.692;2023-04-03T01:06:05;2.10;99.90
27747;DHT22;15138;51.012;4.692;2023-04-03T01:08:34;2.00;99.90
27747;DHT22;15138;51.012;4.692;2023-04-03T01:11:02;2.10;99.90
27747;DHT22;15138;51.012;4.692;2023-04-03T01:13:33;2.00;99.90
27747;DHT22;15138;51.012;4.692;2023-04-03T01:16:02;2.10;99.90
27747;DHT22;15138;51.012;4.692;2023-04-03T01:18:32;2.00;99.90
27747;DHT22;15138;51.012;4.692;2023-04-03T01:21:37;2.00;99.90
27747;DHT22;15138;51.012;4.692;2023-04-03T01:24:27;2.00;99.90
27747;DHT22;15138;51.012;4.692;2023-04-03T01:26:59;2.00;99.90
27747;DHT22;15138;51.012;4.692;2023-04-03T01:29:29;1.90;99.90
27747;DHT22;15138;51.012;4.692;2023-04-03T01:32:00;2.00;99.90
27747;DHT22;15138;51.012;4.692;2023-04-03T01:34:30;2.00;99.90
27747;DHT22;15138;51.012;4.692;2023-04-03T01:36:58;1.90;99.90
27747;DHT22;15138;51.012;4.692;2023-04-03T01:39:26;1.90;99.90
27747;DHT22;15138;51.012;4.692;2023-04-03T01:41:55;1.90;99.90
27747;DHT22;15138;51.012;4.692;2023-04-03T01:44:23;1.90;99.90
27747;DHT22;15138;51.012;4.692;2023-04-03T01:46:51;1.90;99.90
27747;DHT22;15138;51.012;4.692;2023-04-03T01:49:20;1.80;99.90
27747;DHT22;15138;51.012;4.692;2023-04-03T01:51:48;1.80;99.90
27747;DHT22;15138;51.012;4.692;2023-04-03T01:54:17;1.80;99.90
27747;DHT22;15138;51.012;4.692;2023-04-03T01:56:45;1.80;99.90
27747;DHT22;15138;51.012;4.692;2023-04-03T01:59:13;1.70;99.90
27747;DHT22;15138;51.012;4.692;2023-04-03T02:01:43;1.70;99.90
27747;DHT22;15138;51.012;4.692;2023-04-03T02:04:13;1.70;99.90
27747;DHT22;15138;51.012;4.692;2023-04-03T02:06:42;1.70;99.90
27747;DHT22;15138;51.012;4.692;2023-04-03T02:09:10;1.70;99.90
27747;DHT22;15138;51.012;4.692;2023-04-03T02:11:39;1.70;99.90
27747;DHT22;15138;51.012;4.692;2023-04-03T02:14:07;1.70;99.90
27747;DHT22;15138;51.012;4.692;2023-04-03T02:16:35;1.70;99.90
27747;DHT22;15138;51.012;4.692;2023-04-03T02:19:03;1.70;99.90
27747;DHT22;15138;51.012;4.692;2023-04-03T02:21:31;1.70;99.90
27747;DHT22;15138;51.012;4.692;2023-04-03T02:24:01;1.70;99.90
27747;DHT22;15138;51.012;4.692;2023-04-03T02:26:29;1.70;99.90
27747;DHT22;15138;51.012;4.692;2023-04-03T02:28:57;1.70;99.90
27747;DHT22;15138;51.012;4.692;2023-04-03T02:31:25;1.70;99.90
27747;DHT22;15138;51.012;4.692;2023-04-03T02:33:54;1.60;99.90
27747;DHT22;15138;51.012;4.692;2023-04-03T02:36:22;1.60;99.90
27747;DHT22;15138;51.012;4.692;2023-04-03T02:38:50;1.60;99.90
27747;DHT22;15138;51.012;4.692;2023-04-03T02:41:20;1.60;99.90
27747;DHT22;15138;51.012;4.692;2023-04-03T02:43:48;1.60;99.90
27747;DHT22;15138;51.012;4.692;2023-04-03T02:46:16;1.60;99.90
27747;DHT22;15138;51.012;4.692;2023-04-03T02:48:45;1.50;99.90
27747;DHT22;15138;51.012;4.692;2023-04-03T02:51:13;1.50;99.90
27747;DHT22;15138;51.012;4.692;2023-04-03T02:53:41;1.50;99.90
27747;DHT22;15138;51.012;4.692;2023-04-03T02:56:09;1.50;99.90
27747;DHT22;15138;51.012;4.692;2023-04-03T02:58:39;1.50;99.90
27747;DHT22;15138;51.012;4.692;2023-04-03T03:01:07;1.50;99.90
27747;DHT22;15138;51.012;4.692;2023-04-03T03:03:35;1.50;99.90
27747;DHT22;15138;51.012;4.692;2023-04-03T03:06:04;1.50;99.90
27747;DHT22;15138;51.012;4.692;2023-04-03T03:08:33;1.50;99.90
27747;DHT22;15138;51.012;4.692;2023-04-03T03:11:02;1.50;99.90
27747;DHT22;15138;51.012;4.692;2023-04-03T03:13:31;1.50;99.90
27747;DHT22;15138;51.012;4.692;2023-04-03T03:16:01;1.50;99.90
27747;DHT22;15138;51.012;4.692;2023-04-03T03:18:29;1.40;99.90
27747;DHT22;15138;51.012;4.692;2023-04-03T03:20:59;1.40;99.90
27747;DHT22;15138;51.012;4.692;2023-04-03T03:23:28;1.40;99.90
27747;DHT22;15138;51.012;4.692;2023-04-03T03:25:58;1.40;99.90
27747;DHT22;15138;51.012;4.692;2023-04-03T03:28:27;1.40;99.90
27747;DHT22;15138;51.012;4.692;2023-04-03T03:30:56;1.40;99.90
27747;DHT22;15138;51.012;4.692;2023-04-03T03:33:26;1.40;99.90
27747;DHT22;15138;51.012;4.692;2023-04-03T03:35:55;1.30;99.90
27747;DHT22;15138;51.012;4.692;2023-04-03T03:38:23;1.30;99.90
27747;DHT22;15138;51.012;4.692;2023-04-03T03:40:52;1.30;99.90
27747;DHT22;15138;51.012;4.692;2023-04-03T03:43:20;1.30;99.90
27747;DHT22;15138;51.012;4.692;2023-04-03T03:45:50;1.30;99.90
27747;DHT22;15138;51.012;4.692;2023-04-03T03:48:19;1.30;99.90
27747;DHT22;15138;51.012;4.692;2023-04-03T03:50:49;1.30;99.90
27747;DHT22;15138;51.012;4.692;2023-04-03T03:53:18;1.20;99.90
27747;DHT22;15138;51.012;4.692;2023-04-03T03:55:46;1.30;99.90
27747;DHT22;15138;51.012;4.692;2023-04-03T03:58:14;1.20;99.90
27747;DHT22;15138;51.012;4.692;2023-04-03T04:00:42;1.20;99.90
27747;DHT22;15138;51.012;4.692;2023-04-03T04:03:11;1.20;99.90
27747;DHT22;15138;51.012;4.692;2023-04-03T04:05:39;1.20;99.90
27747;DHT22;15138;51.012;4.692;2023-04-03T04:08:08;1.20;99.90
27747;DHT22;15138;51.012;4.692;2023-04-03T04:10:37;1.20;99.90
27747;DHT22;15138;51.012;4.692;2023-04-03T04:13:06;1.20;99.90
27747;DHT22;15138;51.012;4.692;2023-04-03T04:15:34;1.20;99.90
27747;DHT22;15138;51.012;4.692;2023-04-03T04:18:03;1.10;99.90
27747;DHT22;15138;51.012;4.692;2023-04-03T04:20:31;1.10;99.90
27747;DHT22;15138;51.012;4.692;2023-04-03T04:22:59;1.10;99.90
27747;DHT22;15138;51.012;4.692;2023-04-03T04:25:29;1.10;99.90
27747;DHT22;15138;51.012;4.692;2023-04-03T04:27:57;1.10;99.90
27747;DHT22;15138;51.012;4.692;2023-04-03T04:30:25;1.10;99.90
27747;DHT22;15138;51.012;4.692;2023-04-03T04:32:54;1.10;99.90
27747;DHT22;15138;51.012;4.692;2023-04-03T04:35:23;1.10;99.90
27747;DHT22;15138;51.012;4.692;2023-04-03T04:37:51;1.00;99.90
27747;DHT22;15138;51.012;4.692;2023-04-03T04:40:19;1.00;99.90
27747;DHT22;15138;51.012;4.692;2023-04-03T04:42:48;1.00;99.90
27747;DHT22;15138;51.012;4.692;2023-04-03T04:45:17;1.00;99.90
27747;DHT22;15138;51.012;4.692;2023-04-03T04:47:45;1.00;99.90
27747;DHT22;15138;51.012;4.692;2023-04-03T04:50:13;0.90;99.90
27747;DHT22;15138;51.012;4.692;2023-04-03T04:52:41;1.00;99.90
27747;DHT22;15138;51.012;4.692;2023-04-03T04:55:10;1.00;99.90
27747;DHT22;15138;51.012;4.692;2023-04-03T04:57:38;1.00;99.90
27747;DHT22;15138;51.012;4.692;2023-04-03T05:00:09;1.00;99.90
27747;DHT22;15138;51.012;4.692;2023-04-03T05:02:37;0.90;99.90
27747;DHT22;15138;51.012;4.692;2023-04-03T05:05:06;1.00;99.90
27747;DHT22;15138;51.012;4.692;2023-04-03T05:07:35;0.90;99.90
27747;DHT22;15138;51.012;4.692;2023-04-03T05:10:04;1.00;99.90
27747;DHT22;15138;51.012;4.692;2023-04-03T05:12:32;0.90;99.90
27747;DHT22;15138;51.012;4.692;2023-04-03T05:15:00;0.90;99.90
27747;DHT22;15138;51.012;4.692;2023-04-03T05:17:30;0.80;99.90
27747;DHT22;15138;51.012;4.692;2023-04-03T05:19:58;0.80;99.90
27747;DHT22;15138;51.012;4.692;2023-04-03T05:22:26;0.80;99.90
27747;DHT22;15138;51.012;4.692;2023-04-03T05:24:54;0.80;99.90
27747;DHT22;15138;51.012;4.692;2023-04-03T05:27:23;0.80;99.90
27747;DHT22;15138;51.012;4.692;2023-04-03T05:29:52;0.80;99.90
27747;DHT22;15138;51.012;4.692;2023-04-03T05:32:21;0.80;99.90
27747;DHT22;15138;51.012;4.692;2023-04-03T05:34:50;0.80;99.90
27747;DHT22;15138;51.012;4.692;2023-04-03T05:37:19;0.80;99.90
27747;DHT22;15138;51.012;4.692;2023-04-03T05:39:48;0.90;99.90
27747;DHT22;15138;51.012;4.692;2023-04-03T05:42:16;0.90;99.90
27747;DHT22;15138;51.012;4.692;2023-04-03T05:44:44;0.90;99.90
27747;DHT22;15138;51.012;4.692;2023-04-03T05:47:13;0.90;99.90
27747;DHT22;15138;51.012;4.692;2023-04-03T05:49:42;0.90;99.90
27747;DHT22;15138;51.012;4.692;2023-04-03T05:52:20;1.00;99.90
27747;DHT22;15138;51.012;4.692;2023-04-03T05:54:48;1.00;99.90
27747;DHT22;15138;51.012;4.692;2023-04-03T05:57:17;1.00;99.90
27747;DHT22;15138;51.012;4.692;2023-04-03T05:59:46;1.10;99.90
27747;DHT22;15138;51.012;4.692;2023-04-03T06:02:16;1.10;99.90
27747;DHT22;15138;51.012;4.692;2023-04-03T06:04:45;1.10;99.90
27747;DHT22;15138;51.012;4.692;2023-04-03T06:07:17;1.10;1.00
27747;DHT22;15138;51.012;4.692;2023-04-03T06:09:48;1.20;1.00
27747;DHT22;15138;51.012;4.692;2023-04-03T06:12:18;1.30;1.00
27747;DHT22;15138;51.012;4.692;2023-04-03T06:14:46;1.30;1.00
27747;DHT22;15138;51.012;4.692;2023-04-03T06:17:15;1.40;99.90
27747;DHT22;15138;51.012;4.692;2023-04-03T06:19:45;1.50;99.90
27747;DHT22;15138;51.012;4.692;2023-04-03T06:22:13;1.60;99.90
27747;DHT22;15138;51.012;4.692;2023-04-03T06:24:43;1.70;1.00
27747;DHT22;15138;51.012;4.692;2023-04-03T06:27:12;1.90;10.40
27747;DHT22;15138;51.012;4.692;2023-04-03T06:29:40;2.00;61.20
27747;DHT22;15138;51.012;4.692;2023-04-03T06:32:09;2.20;99.90
27747;DHT22;15138;51.012;4.692;2023-04-03T06:34:37;2.30;99.90
27747;DHT22;15138;51.012;4.692;2023-04-03T06:37:05;2.40;99.90
27747;DHT22;15138;51.012;4.692;2023-04-03T06:39:33;2.60;1.00
27747;DHT22;15138;51.012;4.692;2023-04-03T06:42:04;2.80;1.00
27747;DHT22;15138;51.012;4.692;2023-04-03T06:44:32;2.90;1.00
27747;DHT22;15138;51.012;4.692;2023-04-03T06:47:01;3.20;1.00
27747;DHT22;15138;51.012;4.692;2023-04-03T06:49:29;3.40;1.00
27747;DHT22;15138;51.012;4.692;2023-04-03T06:51:58;3.50;99.90
27747;DHT22;15138;51.012;4.692;2023-04-03T06:54:28;3.70;99.90
27747;DHT22;15138;51.012;4.692;2023-04-03T06:56:56;3.90;99.90
27747;DHT22;15138;51.012;4.692;2023-04-03T06:59:26;4.10;48.30
27747;DHT22;15138;51.012;4.692;2023-04-03T07:01:55;4.30;1.00
27747;DHT22;15138;51.012;4.692;2023-04-03T07:04:23;4.40;99.90
27747;DHT22;15138;51.012;4.692;2023-04-03T07:06:51;4.70;99.90
27747;DHT22;15138;51.012;4.692;2023-04-03T07:09:19;4.90;99.90
27747;DHT22;15138;51.012;4.692;2023-04-03T07:11:50;5.10;59.90
27747;DHT22;15138;51.012;4.692;2023-04-03T07:14:18;5.40;95.10
27747;DHT22;15138;51.012;4.692;2023-04-03T07:16:47;5.50;1.00
27747;DHT22;15138;51.012;4.692;2023-04-03T07:19:16;5.70;1.00
27747;DHT22;15138;51.012;4.692;2023-04-03T07:21:45;5.80;99.90
27747;DHT22;15138;51.012;4.692;2023-04-03T07:24:14;6.10;99.90
27747;DHT22;15138;51.012;4.692;2023-04-03T07:26:42;6.40;99.90
27747;DHT22;15138;51.012;4.692;2023-04-03T07:29:12;6.60;99.90
27747;DHT22;15138;51.012;4.692;2023-04-03T07:31:40;6.70;99.90
27747;DHT22;15138;51.012;4.692;2023-04-03T07:34:10;7.10;99.90
27747;DHT22;15138;51.012;4.692;2023-04-03T07:36:38;7.30;99.90
27747;DHT22;15138;51.012;4.692;2023-04-03T07:39:07;7.60;99.90
27747;DHT22;15138;51.012;4.692;2023-04-03T07:41:35;7.80;99.90
27747;DHT22;15138;51.012;4.692;2023-04-03T07:44:03;7.90;99.90
27747;DHT22;15138;51.012;4.692;2023-04-03T07:46:32;8.10;99.90
27747;DHT22;15138;51.012;4.692;2023-04-03T07:49:00;8.20;24.50
27747;DHT22;15138;51.012;4.692;2023-04-03T07:51:30;8.60;38.30
27747;DHT22;15138;51.012;4.692;2023-04-03T07:53:58;8.70;1.00
27747;DHT22;15138;51.012;4.692;2023-04-03T07:56:26;9.50;1.00
27747;DHT22;15138;51.012;4.692;2023-04-03T08:01:23;9.90;99.90
27747;DHT22;15138;51.012;4.692;2023-04-03T08:03:51;10.10;1.00
27747;DHT22;15138;51.012;4.692;2023-04-03T08:06:20;10.40;1.00
27747;DHT22;15138;51.012;4.692;2023-04-03T08:11:41;11.00;1.00
27747;DHT22;15138;51.012;4.692;2023-04-03T08:16:44;11.40;99.90
27747;DHT22;15138;51.012;4.692;2023-04-03T08:19:13;11.70;1.00
27747;DHT22;15138;51.012;4.692;2023-04-03T08:21:52;11.90;1.00
27747;DHT22;15138;51.012;4.692;2023-04-03T08:24:22;12.40;1.00
27747;DHT22;15138;51.012;4.692;2023-04-03T08:26:50;12.80;99.90
27747;DHT22;15138;51.012;4.692;2023-04-03T08:31:49;13.50;1.00
27747;DHT22;15138;51.012;4.692;2023-04-03T08:34:18;13.00;1.00
27747;DHT22;15138;51.012;4.692;2023-04-03T08:36:47;13.20;1.00
27747;DHT22;15138;51.012;4.692;2023-04-03T08:39:17;13.70;1.00
27747;DHT22;15138;51.012;4.692;2023-04-03T08:41:46;13.90;1.00
27747;DHT22;15138;51.012;4.692;2023-04-03T08:44:19;14.50;1.00
27747;DHT22;15138;51.012;4.692;2023-04-03T08:47:01;14.70;1.00
27747;DHT22;15138;51.012;4.692;2023-04-03T08:49:33;14.90;1.00
27747;DHT22;15138;51.012;4.692;2023-04-03T08:52:05;15.30;1.00
27747;DHT22;15138;51.012;4.692;2023-04-03T08:57:12;16.50;20.50
27747;DHT22;15138;51.012;4.692;2023-04-03T08:59:43;16.70;1.00
27747;DHT22;15138;51.012;4.692;2023-04-03T09:02:24;16.80;1.00
27747;DHT22;15138;51.012;4.692;2023-04-03T09:07:33;16.30;1.00
27747;DHT22;15138;51.012;4.692;2023-04-03T09:10:03;15.70;99.90
27747;DHT22;15138;51.012;4.692;2023-04-03T09:12:37;16.00;99.90
27747;DHT22;15138;51.012;4.692;2023-04-03T09:15:16;16.50;99.90
27747;DHT22;15138;51.012;4.692;2023-04-03T09:18:05;16.70;99.90
27747;DHT22;15138;51.012;4.692;2023-04-03T09:20:44;16.90;99.90
27747;DHT22;15138;51.012;4.692;2023-04-03T09:23:19;16.80;99.90
27747;DHT22;15138;51.012;4.692;2023-04-03T09:25:50;16.80;99.90
27747;DHT22;15138;51.012;4.692;2023-04-03T09:28:21;16.90;99.90
27747;DHT22;15138;51.012;4.692;2023-04-03T09:30:50;17.20;99.90
27747;DHT22;15138;51.012;4.692;2023-04-03T09:33:18;17.20;99.90
27747;DHT22;15138;51.012;4.692;2023-04-03T09:35:48;17.90;99.90
27747;DHT22;15138;51.012;4.692;2023-04-03T09:38:19;17.70;99.90
27747;DHT22;15138;51.012;4.692;2023-04-03T09:40:50;18.10;99.90
27747;DHT22;15138;51.012;4.692;2023-04-03T09:43:26;17.80;99.90
27747;DHT22;15138;51.012;4.692;2023-04-03T09:45:56;17.70;99.90
27747;DHT22;15138;51.012;4.692;2023-04-03T09:48:56;17.80;99.90
27747;DHT22;15138;51.012;4.692;2023-04-03T09:51:36;18.20;99.90
27747;DHT22;15138;51.012;4.692;2023-04-03T09:54:34;17.90;99.90
27747;DHT22;15138;51.012;4.692;2023-04-03T09:57:08;18.70;99.90
27747;DHT22;15138;51.012;4.692;2023-04-03T09:59:46;18.40;99.90
27747;DHT22;15138;51.012;4.692;2023-04-03T10:02:34;18.30;99.90
27747;DHT22;15138;51.012;4.692;2023-04-03T10:05:04;18.90;99.90
27747;DHT22;15138;51.012;4.692;2023-04-03T10:07:37;19.10;99.90
27747;DHT22;15138;51.012;4.692;2023-04-03T10:10:20;18.80;99.90
27747;DHT22;15138;51.012;4.692;2023-04-03T10:13:04;18.60;99.90
27747;DHT22;15138;51.012;4.692;2023-04-03T10:15:37;18.70;99.90
27747;DHT22;15138;51.012;4.692;2023-04-03T10:18:22;19.10;99.90
27747;DHT22;15138;51.012;4.692;2023-04-03T10:21:02;19.40;99.90
27747;DHT22;15138;51.012;4.692;2023-04-03T10:23:42;19.70;99.90
27747;DHT22;15138;51.012;4.692;2023-04-03T10:26:17;19.50;99.90
27747;DHT22;15138;51.012;4.692;2023-04-03T10:28:55;19.70;99.90
27747;DHT22;15138;51.012;4.692;2023-04-03T10:31:32;19.20;99.90
27747;DHT22;15138;51.012;4.692;2023-04-03T10:34:06;19.60;99.90
27747;DHT22;15138;51.012;4.692;2023-04-03T10:36:38;19.50;99.90
27747;DHT22;15138;51.012;4.692;2023-04-03T10:39:19;19.70;99.90
27747;DHT22;15138;51.012;4.692;2023-04-03T10:42:01;19.60;99.90
27747;DHT22;15138;51.012;4.692;2023-04-03T10:44:56;19.30;99.90
27747;DHT22;15138;51.012;4.692;2023-04-03T10:47:32;20.00;99.90
27747;DHT22;15138;51.012;4.692;2023-04-03T10:50:29;19.50;99.90
27747;DHT22;15138;51.012;4.692;2023-04-03T10:53:03;19.60;99.90
27747;DHT22;15138;51.012;4.692;2023-04-03T10:55:36;19.40;99.90
27747;DHT22;15138;51.012;4.692;2023-04-03T10:58:06;19.50;99.90
27747;DHT22;15138;51.012;4.692;2023-04-03T11:00:39;20.30;99.90
27747;DHT22;15138;51.012;4.692;2023-04-03T11:05:43;19.80;99.90
27747;DHT22;15138;51.012;4.692;2023-04-03T11:08:19;19.80;99.90
27747;DHT22;15138;51.012;4.692;2023-04-03T11:13:22;19.50;99.90
27747;DHT22;15138;51.012;4.692;2023-04-03T11:18:26;19.40;99.90
27747;DHT22;15138;51.012;4.692;2023-04-03T11:21:00;19.60;99.90
27747;DHT22;15138;51.012;4.692;2023-04-03T11:23:31;19.30;99.90
27747;DHT22;15138;51.012;4.692;2023-04-03T11:26:16;19.80;99.90
27747;DHT22;15138;51.012;4.692;2023-04-03T11:28:45;20.20;99.90
27747;DHT22;15138;51.012;4.692;2023-04-03T11:31:24;20.10;99.90
27747;DHT22;15138;51.012;4.692;2023-04-03T11:34:06;20.40;99.90
27747;DHT22;15138;51.012;4.692;2023-04-03T11:36:42;20.30;99.90
27747;DHT22;15138;51.012;4.692;2023-04-03T11:41:47;20.70;99.90
27747;DHT22;15138;51.012;4.692;2023-04-03T11:44:30;20.70;99.90
27747;DHT22;15138;51.012;4.692;2023-04-03T11:47:01;20.70;99.90
27747;DHT22;15138;51.012;4.692;2023-04-03T11:49:54;21.00;99.90
27747;DHT22;15138;51.012;4.692;2023-04-03T11:53:01;20.80;99.90
27747;DHT22;15138;51.012;4.692;2023-04-03T11:55:45;20.60;99.90
27747;DHT22;15138;51.012;4.692;2023-04-03T11:58:15;19.80;99.90
27747;DHT22;15138;51.012;4.692;2023-04-03T12:01:03;20.30;99.90
27747;DHT22;15138;51.012;4.692;2023-04-03T12:03:58;21.00;99.90
27747;DHT22;15138;51.012;4.692;2023-04-03T12:07:00;21.00;99.90
27747;DHT22;15138;51.012;4.692;2023-04-03T12:09:37;21.40;99.90
27747;DHT22;15138;51.012;4.692;2023-04-03T12:12:28;21.70;99.90
27747;DHT22;15138;51.012;4.692;2023-04-03T12:17:54;21.30;99.90
27747;DHT22;15138;51.012;4.692;2023-04-03T12:23:26;22.10;99.90
27747;DHT22;15138;51.012;4.692;2023-04-03T12:26:02;22.40;99.90
27747;DHT22;15138;51.012;4.692;2023-04-03T12:28:37;22.20;99.90
27747;DHT22;15138;51.012;4.692;2023-04-03T12:31:08;22.10;99.90
27747;DHT22;15138;51.012;4.692;2023-04-03T12:34:05;22.50;1.00
27747;DHT22;15138;51.012;4.692;2023-04-03T12:36:42;22.40;99.90
27747;DHT22;15138;51.012;4.692;2023-04-03T12:44:53;21.20;99.90
27747;DHT22;15138;51.012;4.692;2023-04-03T12:47:27;22.20;99.90
27747;DHT22;15138;51.012;4.692;2023-04-03T12:49:57;22.20;99.90
27747;DHT22;15138;51.012;4.692;2023-04-03T12:52:33;22.30;99.90
27747;DHT22;15138;51.012;4.692;2023-04-03T12:55:08;22.40;99.90
27747;DHT22;15138;51.012;4.692;2023-04-03T12:57:42;22.50;99.90
27747;DHT22;15138;51.012;4.692;2023-04-03T13:00:22;21.80;99.90
27747;DHT22;15138;51.012;4.692;2023-04-03T13:02:53;22.20;99.90
27747;DHT22;15138;51.012;4.692;2023-04-03T13:05:23;22.20;99.90
27747;DHT22;15138;51.012;4.692;2023-04-03T13:07:55;21.60;99.90
27747;DHT22;15138;51.012;4.692;2023-04-03T13:10:26;21.60;99.90
27747;DHT22;15138;51.012;4.692;2023-04-03T13:12:56;21.60;99.90
27747;DHT22;15138;51.012;4.692;2023-04-03T13:15:26;21.60;99.90
27747;DHT22;15138;51.012;4.692;2023-04-03T13:20:26;21.30;99.90
27747;DHT22;15138;51.012;4.692;2023-04-03T13:22:57;22.10;99.90
27747;DHT22;15138;51.012;4.692;2023-04-03T13:28:02;21.70;99.90
27747;DHT22;15138;51.012;4.692;2023-04-03T13:30:41;22.20;99.90
27747;DHT22;15138;51.012;4.692;2023-04-03T13:33:24;22.00;99.90
27747;DHT22;15138;51.012;4.692;2023-04-03T13:35:58;21.90;99.90
27747;DHT22;15138;51.012;4.692;2023-04-03T13:38:29;22.20;99.90
27747;DHT22;15138;51.012;4.692;2023-04-03T13:41:04;22.20;99.90
27747;DHT22;15138;51.012;4.692;2023-04-03T13:43:34;22.00;99.90
27747;DHT22;15138;51.012;4.692;2023-04-03T13:46:06;22.20;99.90
27747;DHT22;15138;51.012;4.692;2023-04-03T13:48:51;21.90;99.90
27747;DHT22;15138;51.012;4.692;2023-04-03T13:51:22;21.00;98.40
27747;DHT22;15138;51.012;4.692;2023-04-03T13:53:53;21.00;98.90
27747;DHT22;15138;51.012;4.692;2023-04-03T13:56:30;20.90;94.20
27747;DHT22;15138;51.012;4.692;2023-04-03T13:59:06;20.80;92.00
27747;DHT22;15138;51.012;4.692;2023-04-03T14:01:50;20.40;90.70
27747;DHT22;15138;51.012;4.692;2023-04-03T14:04:21;20.60;91.30
27747;DHT22;15138;51.012;4.692;2023-04-03T14:06:50;20.50;87.70
27747;DHT22;15138;51.012;4.692;2023-04-03T14:09:20;20.60;90.50
27747;DHT22;15138;51.012;4.692;2023-04-03T14:11:53;20.50;90.60
27747;DHT22;15138;51.012;4.692;2023-04-03T14:14:33;20.50;89.80
27747;DHT22;15138;51.012;4.692;2023-04-03T14:17:03;20.50;91.40
27747;DHT22;15138;51.012;4.692;2023-04-03T14:19:53;20.10;78.90
27747;DHT22;15138;51.012;4.692;2023-04-03T14:22:24;20.50;78.70
27747;DHT22;15138;51.012;4.692;2023-04-03T14:24:52;20.40;94.30
27747;DHT22;15138;51.012;4.692;2023-04-03T14:27:24;20.40;95.30
27747;DHT22;15138;51.012;4.692;2023-04-03T14:29:54;20.10;92.20
27747;DHT22;15138;51.012;4.692;2023-04-03T14:32:24;19.70;90.90
27747;DHT22;15138;51.012;4.692;2023-04-03T14:34:53;19.30;84.40
27747;DHT22;15138;51.012;4.692;2023-04-03T14:37:23;19.50;81.10
27747;DHT22;15138;51.012;4.692;2023-04-03T14:39:53;19.70;83.80
27747;DHT22;15138;51.012;4.692;2023-04-03T14:42:25;19.90;82.60
27747;DHT22;15138;51.012;4.692;2023-04-03T14:44:54;20.00;89.60
27747;DHT22;15138;51.012;4.692;2023-04-03T14:47:25;19.60;83.70
27747;DHT22;15138;51.012;4.692;2023-04-03T14:49:58;19.70;99.90
27747;DHT22;15138;51.012;4.692;2023-04-03T14:52:28;19.40;99.90
27747;DHT22;15138;51.012;4.692;2023-04-03T14:54:58;19.20;79.50
27747;DHT22;15138;51.012;4.692;2023-04-03T14:57:29;19.10;73.90
27747;DHT22;15138;51.012;4.692;2023-04-03T14:59:58;19.30;74.50
27747;DHT22;15138;51.012;4.692;2023-04-03T15:02:30;19.70;84.50
27747;DHT22;15138;51.012;4.692;2023-04-03T15:05:01;19.10;62.50
27747;DHT22;15138;51.012;4.692;2023-04-03T15:07:33;18.70;79.50
27747;DHT22;15138;51.012;4.692;2023-04-03T15:10:06;18.90;88.10
27747;DHT22;15138;51.012;4.692;2023-04-03T15:12:43;19.10;80.80
27747;DHT22;15138;51.012;4.692;2023-04-03T15:15:13;18.90;69.10
27747;DHT22;15138;51.012;4.692;2023-04-03T15:17:41;18.50;87.40
27747;DHT22;15138;51.012;4.692;2023-04-03T15:20:13;18.50;63.20
27747;DHT22;15138;51.012;4.692;2023-04-03T15:22:41;18.40;60.50
27747;DHT22;15138;51.012;4.692;2023-04-03T15:25:10;18.50;76.20
27747;DHT22;15138;51.012;4.692;2023-04-03T15:27:38;18.50;77.10
27747;DHT22;15138;51.012;4.692;2023-04-03T15:30:14;18.20;71.10
27747;DHT22;15138;51.012;4.692;2023-04-03T15:32:43;17.90;66.00
27747;DHT22;15138;51.012;4.692;2023-04-03T15:35:12;17.90;81.20
27747;DHT22;15138;51.012;4.692;2023-04-03T15:37:48;17.80;56.50
27747;DHT22;15138;51.012;4.692;2023-04-03T15:40:16;17.50;58.80
27747;DHT22;15138;51.012;4.692;2023-04-03T15:42:44;17.70;68.10
27747;DHT22;15138;51.012;4.692;2023-04-03T15:47:41;17.20;50.00
27747;DHT22;15138;51.012;4.692;2023-04-03T15:50:10;16.80;53.30
27747;DHT22;15138;51.012;4.692;2023-04-03T15:52:38;17.10;80.70
27747;DHT22;15138;51.012;4.692;2023-04-03T15:55:08;16.90;62.20
27747;DHT22;15138;51.012;4.692;2023-04-03T15:57:37;17.10;70.10
27747;DHT22;15138;51.012;4.692;2023-04-03T16:00:07;17.00;78.70
27747;DHT22;15138;51.012;4.692;2023-04-03T16:02:35;16.70;65.00
27747;DHT22;15138;51.012;4.692;2023-04-03T16:05:04;16.50;60.00
27747;DHT22;15138;51.012;4.692;2023-04-03T16:07:32;16.70;68.30
27747;DHT22;15138;51.012;4.692;2023-04-03T16:10:00;16.70;70.20
27747;DHT22;15138;51.012;4.692;2023-04-03T16:12:30;16.70;75.40
27747;DHT22;15138;51.012;4.692;2023-04-03T16:17:27;16.80;68.20
27747;DHT22;15138;51.012;4.692;2023-04-03T16:19:55;16.90;81.70
27747;DHT22;15138;51.012;4.692;2023-04-03T16:22:25;16.80;77.10
27747;DHT22;15138;51.012;4.692;2023-04-03T16:24:54;16.40;67.70
27747;DHT22;15138;51.012;4.692;2023-04-03T16:29:55;16.10;78.10
27747;DHT22;15138;51.012;4.692;2023-04-03T16:32:25;16.10;90.30
27747;DHT22;15138;51.012;4.692;2023-04-03T16:34:54;16.20;74.10
27747;DHT22;15138;51.012;4.692;2023-04-03T16:37:22;16.10;76.50
27747;DHT22;15138;51.012;4.692;2023-04-03T16:39:53;15.70;71.40
27747;DHT22;15138;51.012;4.692;2023-04-03T16:42:21;15.90;85.70
27747;DHT22;15138;51.012;4.692;2023-04-03T16:44:50;15.90;79.30
27747;DHT22;15138;51.012;4.692;2023-04-03T16:47:19;15.60;87.20
27747;DHT22;15138;51.012;4.692;2023-04-03T16:49:47;15.30;74.30
27747;DHT22;15138;51.012;4.692;2023-04-03T16:52:16;15.20;73.50
27747;DHT22;15138;51.012;4.692;2023-04-03T16:54:44;15.10;85.00
27747;DHT22;15138;51.012;4.692;2023-04-03T16:57:13;14.90;68.30